createdAt,value
2018-07-13T04:00:59.915Z,99.99
2018-07-13T04:01:59.794Z,99.99
2018-07-13T04:03:52.539Z,99.99
2018-07-13T04:04:52.353Z,99.99
2018-07-13T04:06:45.048Z,99.99
2018-07-13T04:07:44.930Z,99.99
2018-07-13T04:09:37.631Z,99.99
2018-07-13T04:10:37.508Z,99.99
2018-07-13T04:12:30.214Z,99.99
2018-07-13T04:13:30.112Z,99.99
2018-07-13T04:15:22.763Z,99.99
2018-07-13T04:16:22.651Z,99.99
2018-07-13T04:18:15.365Z,99.99
2018-07-13T04:19:15.233Z,99.99
2018-07-13T04:21:07.912Z,99.99
2018-07-13T04:22:07.812Z,99.99
2018-07-13T04:24:00.506Z,99.99
2018-07-13T04:25:00.389Z,99.99
2018-07-13T04:26:53.069Z,99.99
2018-07-13T04:27:52.953Z,99.99
2018-07-13T04:29:45.661Z,99.99
2018-07-13T04:30:45.532Z,99.99
2018-07-13T04:32:38.220Z,99.99
2018-07-13T04:33:38.125Z,99.99
2018-07-13T04:35:30.819Z,99.99
2018-07-13T04:36:30.687Z,99.99
2018-07-13T04:38:23.367Z,99.99
2018-07-13T04:39:23.268Z,99.99
2018-07-13T04:41:15.966Z,99.99
2018-07-13T04:42:15.839Z,99.99
2018-07-13T04:44:08.525Z,99.99
2018-07-13T04:45:08.422Z,99.99
2018-07-13T04:47:01.122Z,99.99
2018-07-13T04:48:00.998Z,99.99
2018-07-13T04:49:53.694Z,99.99
2018-07-13T04:50:53.598Z,99.99
2018-07-13T04:52:46.292Z,99.99
2018-07-13T04:53:46.172Z,99.99
2018-07-13T04:55:38.861Z,99.99
2018-07-13T04:56:38.751Z,99.99
2018-07-13T04:58:31.452Z,99.99
2018-07-13T04:59:31.334Z,99.99
2018-07-13T05:01:24.012Z,99.99
2018-07-13T05:02:23.904Z,99.99
2018-07-13T05:04:16.615Z,99.24
2018-07-13T05:05:16.486Z,99.99
2018-07-13T05:07:09.168Z,99.99
2018-07-13T05:08:09.070Z,99.91
2018-07-13T05:10:01.773Z,99.99
2018-07-13T05:11:01.641Z,99.99
2018-07-13T05:12:54.327Z,99.91
2018-07-13T05:13:54.220Z,99.91
2018-07-13T05:15:46.918Z,99.63
2018-07-13T05:16:46.798Z,99.82
2018-07-13T05:18:39.476Z,99.91
2018-07-13T05:19:39.377Z,99.99
2018-07-13T05:21:32.082Z,99.99
2018-07-13T05:22:31.955Z,99.82
2018-07-13T05:24:24.667Z,99.99
2018-07-13T05:25:24.542Z,99.99
2018-07-13T05:27:17.216Z,99.15
2018-07-13T05:28:17.114Z,98.19
2018-07-13T05:30:09.828Z,98.57
2018-07-13T05:31:09.700Z,98.38
2018-07-13T05:33:02.386Z,97.42
2018-07-13T05:34:02.280Z,98.00
2018-07-13T05:35:54.978Z,98.28
2018-07-13T05:36:54.874Z,97.04
2018-07-13T05:38:47.538Z,96.99
2018-07-13T05:39:47.443Z,95.46
2018-07-13T05:41:40.152Z,95.46
2018-07-13T05:42:40.030Z,94.31
2018-07-13T05:44:32.711Z,94.98
2018-07-13T05:45:32.613Z,94.31
2018-07-13T05:47:25.319Z,94.98
2018-07-13T05:48:25.189Z,95.46
2018-07-13T05:50:17.868Z,94.50
2018-07-13T05:51:17.769Z,94.89
2018-07-13T05:53:10.467Z,94.98
2018-07-13T05:54:10.346Z,95.56
2018-07-13T05:56:03.184Z,95.17
2018-07-13T05:57:02.933Z,95.56
2018-07-13T05:58:55.629Z,95.17
2018-07-13T05:59:55.510Z,95.56
2018-07-13T06:01:48.348Z,94.02
2018-07-13T06:02:48.085Z,93.93
2018-07-13T06:04:40.791Z,93.54
2018-07-13T06:05:40.671Z,93.16
2018-07-13T06:07:33.350Z,92.49
2018-07-13T06:08:33.249Z,92.20
2018-07-13T06:10:25.962Z,91.28
2018-07-13T06:11:25.837Z,91.72
2018-07-13T06:13:18.516Z,91.67
2018-07-13T06:14:18.409Z,90.04
2018-07-13T06:16:11.119Z,90.52
2018-07-13T06:17:10.994Z,90.81
2018-07-13T06:19:03.678Z,91.09
2018-07-13T06:20:03.580Z,91.72
2018-07-13T06:21:56.283Z,91.77
2018-07-13T06:22:56.161Z,90.14
2018-07-13T06:24:48.845Z,88.31
2018-07-13T06:25:48.739Z,87.40
2018-07-13T06:27:41.442Z,85.67
2018-07-13T06:28:41.326Z,86.63
2018-07-13T06:30:34.003Z,87.93
2018-07-13T06:31:33.966Z,87.55
2018-07-13T06:33:26.603Z,87.93
2018-07-13T06:34:26.477Z,88.31
2018-07-13T06:36:19.191Z,88.22
2018-07-13T06:37:19.060Z,88.12
2018-07-13T06:39:11.744Z,87.93
2018-07-13T06:40:11.645Z,87.35
2018-07-13T06:42:04.342Z,87.78
2018-07-13T06:43:04.221Z,87.68
2018-07-13T06:44:56.913Z,87.49
2018-07-13T06:45:56.814Z,87.30
2018-07-13T06:47:49.516Z,87.40
2018-07-13T06:48:49.397Z,87.74
2018-07-13T06:50:42.102Z,87.40
2018-07-13T06:51:41.991Z,87.16
2018-07-13T06:53:34.680Z,87.78
2018-07-13T06:54:34.563Z,87.93
2018-07-13T06:56:27.258Z,87.74
2018-07-13T06:57:27.156Z,87.64
2018-07-13T06:59:19.864Z,87.35
2018-07-13T07:00:19.740Z,87.35
2018-07-13T07:02:12.426Z,87.84
2018-07-13T07:03:12.327Z,87.55
2018-07-13T07:05:05.040Z,88.22
2018-07-13T07:06:04.922Z,88.79
2018-07-13T07:07:57.598Z,87.93
2018-07-13T07:08:57.501Z,87.55
2018-07-13T07:10:50.203Z,87.40
2018-07-13T07:11:50.085Z,88.02
2018-07-13T07:13:42.787Z,86.82
2018-07-13T07:14:42.666Z,86.05
2018-07-13T07:16:35.352Z,85.19
2018-07-13T07:17:35.248Z,84.91
2018-07-13T07:19:27.956Z,84.75
2018-07-13T07:20:27.839Z,83.12
2018-07-13T07:22:20.522Z,82.84
2018-07-13T07:23:20.425Z,82.30
2018-07-13T07:25:13.128Z,81.15
2018-07-13T07:26:13.011Z,81.49
2018-07-13T07:28:05.694Z,81.01
2018-07-13T07:29:05.601Z,81.49
2018-07-13T07:30:58.301Z,80.76
2018-07-13T07:31:58.180Z,80.38
2018-07-13T07:33:50.863Z,80.38
2018-07-13T07:34:50.765Z,79.17
2018-07-13T07:36:43.467Z,79.32
2018-07-13T07:37:43.354Z,79.27
2018-07-13T07:39:36.043Z,71.50
2018-07-13T07:40:35.944Z,63.82
2018-07-13T07:42:28.665Z,54.28
2018-07-13T07:43:28.539Z,52.25
2018-07-13T07:45:21.241Z,50.89
2018-07-13T07:46:21.149Z,52.90
2018-07-13T07:48:13.880Z,49.41
2018-07-13T07:49:13.778Z,48.49
2018-07-13T07:51:06.472Z,46.72
2018-07-13T07:52:06.386Z,50.48
2018-07-13T07:53:59.113Z,53.07
2018-07-13T07:54:58.985Z,54.37
2018-07-13T07:56:51.704Z,50.92
2018-07-13T07:57:51.613Z,49.39
2018-07-13T07:59:44.340Z,50.87
2018-07-13T08:00:44.224Z,52.87
2018-07-13T08:02:36.934Z,49.68
2018-07-13T08:03:36.851Z,49.10
2018-07-13T08:05:30.064Z,52.75
2018-07-13T08:06:30.071Z,54.23
2018-07-13T08:08:22.688Z,52.34
2018-07-13T08:09:22.571Z,51.96
2018-07-13T08:11:15.280Z,53.12
2018-07-13T08:12:15.189Z,49.05
2018-07-13T08:14:08.046Z,44.86
2018-07-13T08:15:07.807Z,42.55
2018-07-13T08:17:00.537Z,41.42
2018-07-13T08:18:00.432Z,41.32
2018-07-13T08:19:53.162Z,40.93
2018-07-13T08:20:53.059Z,41.40
2018-07-13T08:22:45.769Z,42.45
2018-07-13T08:23:45.674Z,42.28
2018-07-13T08:25:38.402Z,40.45
2018-07-13T08:26:38.324Z,40.95
2018-07-13T08:28:31.038Z,39.02
2018-07-13T08:29:30.929Z,38.92
2018-07-13T08:31:23.681Z,39.57
2018-07-13T08:32:23.564Z,39.65
2018-07-13T08:34:16.291Z,40.13
2018-07-13T08:35:16.201Z,41.60
2018-07-13T08:37:08.949Z,40.73
2018-07-13T08:38:08.828Z,40.25
2018-07-13T08:40:01.543Z,40.45
2018-07-13T08:41:01.450Z,40.93
2018-07-13T08:42:54.189Z,40.72
2018-07-13T08:43:54.087Z,41.01
2018-07-13T08:45:46.815Z,41.93
2018-07-13T08:46:46.709Z,42.99
2018-07-13T08:48:39.450Z,43.85
2018-07-13T08:49:39.339Z,45.57
2018-07-13T08:51:32.091Z,47.64
2018-07-13T08:52:31.972Z,48.30
2018-07-13T08:54:24.705Z,51.35
2018-07-13T08:55:24.597Z,51.52
2018-07-13T08:57:17.307Z,53.63
2018-07-13T08:58:17.216Z,54.08
2018-07-13T09:00:09.944Z,55.79
2018-07-13T09:01:09.834Z,56.67
2018-07-13T09:03:02.560Z,58.35
2018-07-13T09:04:02.482Z,56.80
2018-07-13T09:05:55.234Z,59.86
2018-07-13T09:06:55.047Z,59.58
2018-07-13T09:08:47.778Z,61.19
2018-07-13T09:09:47.660Z,62.63
2018-07-13T09:11:40.400Z,61.77
2018-07-13T09:12:40.258Z,61.38
2018-07-13T09:14:32.972Z,62.82
2018-07-13T09:15:32.851Z,63.02
2018-07-13T09:17:25.554Z,62.54
2018-07-13T09:18:25.461Z,62.86
2018-07-13T09:20:18.173Z,61.89
2018-07-13T09:21:18.050Z,61.80
2018-07-13T09:23:10.749Z,62.60
2018-07-13T09:24:10.667Z,61.83
2018-07-13T09:26:03.355Z,61.02
2018-07-13T09:27:03.239Z,61.31
2018-07-13T09:28:55.934Z,61.38
2018-07-13T09:29:55.834Z,61.86
2018-07-13T09:31:48.549Z,62.22
2018-07-13T09:32:48.428Z,62.73
2018-07-13T09:34:41.123Z,62.73
2018-07-13T09:35:41.037Z,63.02
2018-07-13T09:37:33.737Z,61.83
2018-07-13T09:38:33.621Z,61.67
2018-07-13T09:40:26.312Z,61.77
2018-07-13T09:41:26.209Z,61.57
2018-07-13T09:43:18.921Z,61.77
2018-07-13T09:44:18.804Z,61.96
2018-07-13T09:46:11.494Z,62.34
2018-07-13T09:47:11.394Z,61.22
2018-07-13T09:49:04.123Z,61.28
2018-07-13T09:50:03.984Z,61.67
2018-07-13T09:51:57.676Z,59.83
2018-07-13T09:52:57.578Z,60.22
2018-07-13T09:54:50.286Z,58.68
2018-07-13T09:55:50.166Z,58.87
2018-07-13T09:57:42.873Z,59.93
2018-07-13T09:58:42.754Z,61.09
2018-07-13T10:00:35.478Z,60.51
2018-07-13T10:01:35.352Z,61.12
2018-07-13T10:03:28.066Z,59.86
2018-07-13T10:04:27.935Z,58.42
2018-07-13T10:06:20.630Z,59.19
2018-07-13T10:07:20.531Z,58.51
2018-07-13T10:09:13.240Z,58.90
2018-07-13T10:10:13.118Z,59.77
2018-07-13T10:12:05.810Z,59.93
2018-07-13T10:13:05.712Z,60.13
2018-07-13T10:14:58.418Z,58.87
2018-07-13T10:15:58.299Z,59.38
2018-07-13T10:17:50.989Z,58.51
2018-07-13T10:18:50.889Z,58.12
2018-07-13T10:20:43.611Z,57.42
2018-07-13T10:21:43.486Z,57.45
2018-07-13T10:23:36.183Z,58.19
2018-07-13T10:24:36.076Z,58.32
2018-07-13T10:26:28.780Z,59.19
2018-07-13T10:27:28.670Z,57.84
2018-07-13T10:29:21.370Z,58.42
2018-07-13T10:30:21.267Z,57.64
2018-07-13T10:32:13.976Z,58.22
2018-07-13T10:33:13.853Z,58.22
2018-07-13T10:35:06.586Z,58.25
2018-07-13T10:36:06.452Z,58.35
2018-07-13T10:37:59.146Z,57.87
2018-07-13T10:38:59.050Z,57.48
2018-07-13T10:40:51.772Z,56.13
2018-07-13T10:41:51.644Z,57.19
2018-07-13T10:43:44.341Z,56.90
2018-07-13T10:44:44.238Z,57.67
2018-07-13T10:46:36.951Z,57.19
2018-07-13T10:47:36.910Z,58.35
2018-07-13T10:49:29.525Z,57.19
2018-07-13T10:50:29.424Z,58.15
2018-07-13T10:52:22.136Z,57.67
2018-07-13T10:53:22.016Z,58.45
2018-07-13T10:55:14.704Z,57.70
2018-07-13T10:56:14.611Z,57.21
2018-07-13T10:58:07.326Z,57.31
2018-07-13T10:59:07.208Z,57.51
2018-07-13T11:00:59.900Z,56.35
2018-07-13T11:01:59.803Z,56.54
2018-07-13T11:03:52.511Z,57.31
2018-07-13T11:04:52.395Z,58.28
2018-07-13T11:06:45.094Z,55.47
2018-07-13T11:07:44.986Z,55.74
2018-07-13T11:09:37.711Z,56.41
2018-07-13T11:10:37.593Z,55.74
2018-07-13T11:12:30.277Z,56.61
2018-07-13T11:13:30.181Z,55.87
2018-07-13T11:15:22.889Z,55.83
2018-07-13T11:16:22.774Z,56.13
2018-07-13T11:18:15.466Z,56.41
2018-07-13T11:19:15.365Z,55.93
2018-07-13T11:21:08.072Z,56.80
2018-07-13T11:22:07.959Z,57.67
2018-07-13T11:24:00.649Z,56.25
2018-07-13T11:25:00.546Z,56.35
2018-07-13T11:26:53.256Z,55.67
2018-07-13T11:27:53.143Z,55.99
2018-07-13T11:29:45.847Z,54.53
2018-07-13T11:30:45.739Z,53.86
2018-07-13T11:32:38.449Z,52.89
2018-07-13T11:33:38.330Z,53.96
2018-07-13T11:35:31.029Z,54.15
2018-07-13T11:36:30.930Z,54.15
2018-07-13T11:38:23.645Z,54.44
2018-07-13T11:39:23.523Z,55.41
2018-07-13T11:41:16.238Z,54.37
2018-07-13T11:42:16.123Z,54.37
2018-07-13T11:44:08.884Z,54.17
2018-07-13T11:45:08.713Z,54.37
2018-07-13T11:47:01.407Z,53.31
2018-07-13T11:48:01.301Z,53.59
2018-07-13T11:49:54.010Z,54.08
2018-07-13T11:50:53.888Z,54.15
2018-07-13T11:52:46.603Z,54.93
2018-07-13T11:53:46.516Z,55.31
2018-07-13T11:55:39.180Z,54.25
2018-07-13T11:56:39.081Z,55.11
2018-07-13T11:58:31.794Z,54.66
2018-07-13T11:59:31.675Z,53.99
2018-07-13T12:01:24.368Z,54.27
2018-07-13T12:02:24.299Z,53.79
2018-07-13T12:04:16.982Z,53.99
2018-07-13T12:05:16.866Z,53.59
2018-07-13T12:07:09.557Z,53.41
2018-07-13T12:08:09.457Z,52.92
2018-07-13T12:10:02.161Z,52.95
2018-07-13T12:11:02.052Z,53.53
2018-07-13T12:12:54.745Z,53.02
2018-07-13T12:13:54.644Z,53.31
2018-07-13T12:15:47.342Z,52.46
2018-07-13T12:16:47.245Z,53.31
2018-07-13T12:18:39.920Z,53.04
2018-07-13T12:19:39.824Z,52.85
2018-07-13T12:21:32.525Z,53.04
2018-07-13T12:22:32.413Z,53.33
2018-07-13T12:24:25.100Z,53.14
2018-07-13T12:25:25.003Z,53.23
2018-07-13T12:27:17.715Z,52.56
2018-07-13T12:28:17.597Z,51.59
2018-07-13T12:30:10.317Z,52.08
2018-07-13T12:31:10.189Z,51.59
2018-07-13T12:33:02.902Z,51.47
2018-07-13T12:34:02.783Z,51.01
2018-07-13T12:35:55.492Z,51.50
2018-07-13T12:36:55.371Z,51.18
2018-07-13T12:38:48.060Z,51.20
2018-07-13T12:39:47.974Z,51.62
2018-07-13T12:41:40.675Z,50.55
2018-07-13T12:42:40.553Z,50.07
2018-07-13T12:44:33.252Z,51.20
2018-07-13T12:45:33.155Z,51.62
2018-07-13T12:47:25.863Z,52.68
2018-07-13T12:48:25.783Z,50.84
2018-07-13T12:50:18.443Z,51.13
2018-07-13T12:51:18.341Z,51.13
2018-07-13T12:53:11.060Z,51.32
2018-07-13T12:54:11.063Z,50.74
2018-07-13T12:56:03.632Z,50.65
2018-07-13T12:57:03.540Z,51.23
2018-07-13T12:58:56.243Z,50.55
2018-07-13T12:59:56.130Z,50.65
2018-07-13T13:01:48.816Z,50.26
2018-07-13T13:02:48.720Z,49.99
2018-07-13T13:04:41.437Z,50.29
2018-07-13T13:05:41.400Z,50.29
2018-07-13T13:07:34.010Z,50.19
2018-07-13T13:08:33.913Z,49.34
2018-07-13T13:10:26.638Z,49.54
2018-07-13T13:11:26.522Z,49.34
2018-07-13T13:13:19.217Z,50.19
2018-07-13T13:14:19.115Z,49.80
2018-07-13T13:16:12.474Z,49.63
2018-07-13T13:17:11.745Z,49.82
2018-07-13T13:19:04.451Z,48.47
2018-07-13T13:20:04.342Z,48.57
2018-07-13T13:21:57.162Z,49.63
2018-07-13T13:22:56.938Z,49.54
2018-07-13T13:24:49.641Z,48.76
2018-07-13T13:25:49.547Z,47.89
2018-07-13T13:27:42.256Z,48.20
2018-07-13T13:28:42.147Z,48.00
2018-07-13T13:30:34.863Z,47.98
2018-07-13T13:31:34.740Z,47.13
2018-07-13T13:33:27.430Z,48.39
2018-07-13T13:34:27.335Z,49.17
2018-07-13T13:36:20.294Z,49.24
2018-07-13T13:37:19.939Z,49.54
2018-07-13T13:39:12.632Z,48.83
2018-07-13T13:40:12.530Z,48.83
2018-07-13T13:42:05.262Z,49.51
2018-07-13T13:43:05.140Z,48.93
2018-07-13T13:44:57.827Z,48.95
2018-07-13T13:45:57.729Z,48.37
2018-07-13T13:47:50.439Z,48.25
2018-07-13T13:48:50.326Z,48.83
2018-07-13T13:50:43.176Z,49.22
2018-07-13T13:51:43.072Z,49.90
2018-07-13T13:53:35.820Z,48.47
2018-07-13T13:54:35.669Z,48.27
2018-07-13T13:56:28.366Z,46.43
2018-07-13T13:57:28.269Z,47.13
2018-07-13T13:59:20.980Z,46.45
2018-07-13T14:00:20.860Z,45.61
2018-07-13T14:02:13.561Z,45.41
2018-07-13T14:03:13.462Z,45.70
2018-07-13T14:05:06.172Z,47.72
2018-07-13T14:06:06.058Z,46.84
2018-07-13T14:07:58.757Z,46.84
2018-07-13T14:08:58.723Z,47.42
2018-07-13T14:10:51.371Z,48.47
2018-07-13T14:11:51.321Z,49.02
2018-07-13T14:13:43.945Z,49.99
2018-07-13T14:14:43.894Z,49.70
2018-07-13T14:16:36.555Z,50.48
2018-07-13T14:17:36.437Z,49.99
2018-07-13T14:19:29.130Z,48.66
2018-07-13T14:20:29.037Z,49.63
2018-07-13T14:22:21.752Z,47.89
2018-07-13T14:23:21.630Z,48.47
2018-07-13T14:25:14.336Z,48.25
2018-07-13T14:26:14.250Z,48.35
2018-07-13T14:28:06.951Z,49.22
2018-07-13T14:29:06.828Z,49.70
2018-07-13T14:30:59.524Z,48.37
2018-07-13T14:31:59.435Z,47.40
2018-07-13T14:33:52.135Z,46.94
2018-07-13T14:34:52.025Z,46.36
2018-07-13T14:36:44.738Z,46.96
2018-07-13T14:37:44.623Z,47.38
2018-07-13T14:39:37.311Z,45.41
2018-07-13T14:40:37.213Z,45.21
2018-07-13T14:42:29.934Z,44.34
2018-07-13T14:43:29.820Z,44.32
2018-07-13T14:45:22.526Z,45.78
2018-07-13T14:46:22.409Z,45.68
2018-07-13T14:48:15.125Z,46.65
2018-07-13T14:49:15.006Z,46.65
2018-07-13T14:51:07.705Z,45.68
2018-07-13T14:52:07.603Z,45.00
2018-07-13T14:54:00.321Z,45.87
2018-07-13T14:55:00.208Z,46.84
2018-07-13T14:56:52.899Z,46.07
2018-07-13T14:57:52.804Z,46.65
2018-07-13T14:59:45.577Z,45.97
2018-07-13T15:00:45.408Z,45.39
2018-07-13T15:02:38.091Z,45.48
2018-07-13T15:03:37.997Z,45.29
2018-07-13T15:05:30.710Z,45.20
2018-07-13T15:06:30.659Z,45.48
2018-07-13T15:08:24.276Z,45.12
2018-07-13T15:09:24.184Z,45.51
2018-07-13T15:11:16.902Z,45.80
2018-07-13T15:12:16.784Z,45.51
2018-07-13T15:14:09.524Z,44.85
2018-07-13T15:15:09.416Z,44.54
2018-07-13T15:17:02.105Z,43.64
2018-07-13T15:18:01.987Z,44.23
2018-07-13T15:19:54.699Z,44.88
2018-07-13T15:20:54.582Z,45.47
2018-07-13T15:22:47.422Z,46.45
2018-07-13T15:23:47.193Z,46.53
2018-07-13T15:25:39.904Z,45.20
2018-07-13T15:26:39.793Z,44.32
2018-07-13T15:28:32.489Z,43.84
2018-07-13T15:29:32.394Z,44.15
2018-07-13T15:31:25.104Z,43.27
2018-07-13T15:32:24.987Z,44.03
2018-07-13T15:34:17.682Z,43.93
2018-07-13T15:35:17.585Z,44.32
2018-07-13T15:37:10.298Z,43.16
2018-07-13T15:38:10.184Z,42.85
2018-07-13T15:40:02.882Z,43.91
2018-07-13T15:41:02.787Z,43.43
2018-07-13T15:42:55.535Z,42.94
2018-07-13T15:43:55.389Z,42.65
2018-07-13T15:45:48.084Z,43.93
2018-07-13T15:46:47.991Z,44.78
2018-07-13T15:48:40.698Z,46.62
2018-07-13T15:49:40.583Z,45.85
2018-07-13T15:51:33.275Z,46.53
2018-07-13T15:52:33.182Z,45.37
2018-07-13T15:54:25.893Z,45.37
2018-07-13T15:55:25.776Z,45.27
2018-07-13T15:57:18.462Z,45.95
2018-07-13T15:58:18.372Z,46.41
2018-07-13T16:00:11.085Z,48.44
2018-07-13T16:01:10.970Z,48.25
2018-07-13T16:03:03.669Z,48.61
2018-07-13T16:04:03.567Z,49.68
2018-07-13T16:05:56.281Z,49.99
2018-07-13T16:06:56.164Z,49.32
2018-07-13T16:08:48.871Z,49.41
2018-07-13T16:09:48.753Z,49.70
2018-07-13T16:11:41.450Z,49.02
2018-07-13T16:12:41.352Z,49.34
2018-07-13T16:14:34.072Z,47.79
2018-07-13T16:15:33.953Z,47.60
2018-07-13T16:17:26.649Z,47.79
2018-07-13T16:18:26.550Z,47.79
2018-07-13T16:20:19.265Z,47.79
2018-07-13T16:21:19.150Z,47.50
2018-07-13T16:23:11.839Z,47.02
2018-07-13T16:24:11.743Z,45.75
2018-07-13T16:26:04.601Z,46.82
2018-07-13T16:27:04.338Z,46.33
2018-07-13T16:28:57.028Z,45.85
2018-07-13T16:29:56.931Z,45.75
2018-07-13T16:31:49.642Z,46.24
2018-07-13T16:32:49.521Z,46.33
2018-07-13T16:34:42.218Z,45.75
2018-07-13T16:35:42.127Z,45.85
2018-07-13T16:37:34.838Z,46.14
2018-07-13T16:38:34.719Z,46.72
2018-07-13T16:40:27.415Z,47.02
2018-07-13T16:41:27.322Z,47.69
2018-07-13T16:43:20.035Z,47.02
2018-07-13T16:44:19.923Z,47.11
2018-07-13T16:46:12.650Z,47.40
2018-07-13T16:47:12.524Z,47.69
2018-07-13T16:49:05.216Z,46.84
2018-07-13T16:50:05.119Z,46.84
2018-07-13T16:51:57.831Z,47.13
2018-07-13T16:52:57.713Z,48.08
2018-07-13T16:54:50.403Z,47.20
2018-07-13T16:55:50.309Z,47.69
2018-07-13T16:57:43.019Z,47.30
2018-07-13T16:58:42.900Z,47.89
2018-07-13T17:00:35.593Z,48.18
2018-07-13T17:01:35.492Z,47.11
2018-07-13T17:03:28.227Z,47.89
2018-07-13T17:04:28.088Z,48.18
2018-07-13T17:06:20.782Z,46.82
2018-07-13T17:07:20.680Z,47.79
2018-07-13T17:09:13.391Z,47.30
2018-07-13T17:10:13.279Z,47.69
2018-07-13T17:12:05.975Z,48.15
2018-07-13T17:13:05.879Z,48.06
2018-07-13T17:14:58.588Z,47.98
2018-07-13T17:15:58.473Z,47.98
2018-07-13T17:17:51.166Z,47.79
2018-07-13T17:18:51.067Z,47.60
2018-07-13T17:20:43.780Z,48.06
2018-07-13T17:21:43.654Z,47.77
2018-07-13T17:23:36.378Z,47.89
2018-07-13T17:24:36.275Z,48.18
2018-07-13T17:26:28.991Z,48.37
2018-07-13T17:27:28.877Z,47.89
2018-07-13T17:29:21.577Z,46.89
2018-07-13T17:30:21.477Z,47.02
2018-07-13T17:32:14.184Z,47.47
2018-07-13T17:33:14.070Z,47.38
2018-07-13T17:35:06.766Z,48.06
2018-07-13T17:36:06.667Z,48.06
2018-07-13T17:37:59.372Z,48.06
2018-07-13T17:38:59.250Z,47.77
2018-07-13T17:40:51.965Z,47.86
2018-07-13T17:41:51.852Z,47.47
2018-07-13T17:43:44.571Z,47.30
2018-07-13T17:44:44.440Z,47.60
2018-07-13T17:46:37.135Z,47.20
2018-07-13T17:47:37.043Z,47.11
2018-07-13T17:49:29.756Z,48.06
2018-07-13T17:50:29.634Z,47.69
2018-07-13T17:52:22.324Z,48.08
2018-07-13T17:53:22.229Z,47.20
2018-07-13T17:55:14.938Z,46.82
2018-07-13T17:56:14.823Z,47.13
2018-07-13T17:58:07.508Z,46.26
2018-07-13T17:59:07.416Z,46.58
2018-07-13T18:01:00.144Z,46.45
2018-07-13T18:02:00.011Z,46.82
2018-07-13T18:03:52.697Z,48.57
2018-07-13T18:04:52.604Z,47.98
2018-07-13T18:06:45.354Z,47.38
2018-07-13T18:07:45.195Z,47.96
2018-07-13T18:09:37.893Z,48.93
2018-07-13T18:10:37.789Z,48.54
2018-07-13T18:12:30.574Z,48.90
2018-07-13T18:13:30.387Z,48.90
2018-07-13T18:15:23.080Z,49.58
2018-07-13T18:16:22.977Z,49.00
2018-07-13T18:18:15.694Z,48.90
2018-07-13T18:19:15.572Z,49.29
2018-07-13T18:21:08.261Z,49.39
2018-07-13T18:22:08.167Z,49.10
2018-07-13T18:24:00.887Z,49.39
2018-07-13T18:25:00.757Z,49.87
2018-07-13T18:26:53.636Z,49.58
2018-07-13T18:27:53.354Z,49.39
2018-07-13T18:29:46.065Z,49.19
2018-07-13T18:30:45.947Z,48.90
2018-07-13T18:32:38.636Z,48.74
2018-07-13T18:33:38.533Z,49.29
2018-07-13T18:35:31.245Z,49.39
2018-07-13T18:36:31.137Z,49.39
2018-07-13T18:38:23.820Z,49.58
2018-07-13T18:39:23.726Z,50.14
2018-07-13T18:41:16.574Z,50.72
2018-07-13T18:42:16.318Z,51.40
2018-07-13T18:44:09.071Z,51.30
2018-07-13T18:45:08.907Z,51.47
2018-07-13T18:47:01.613Z,51.76
2018-07-13T18:48:01.493Z,52.44
2018-07-13T18:49:54.189Z,52.05
2018-07-13T18:50:54.092Z,52.73
2018-07-13T18:52:46.807Z,52.63
2018-07-13T18:53:46.693Z,52.73
2018-07-13T18:55:39.383Z,53.21
2018-07-13T18:56:39.289Z,53.31
2018-07-13T18:58:31.994Z,53.50
2018-07-13T18:59:31.876Z,54.15
2018-07-13T19:01:24.572Z,54.35
2018-07-13T19:02:24.475Z,54.35
2018-07-13T19:04:17.215Z,54.05
2018-07-13T19:05:17.061Z,54.44
2018-07-13T19:07:09.750Z,54.63
2018-07-13T19:08:09.648Z,54.73
2018-07-13T19:10:02.366Z,55.29
2018-07-13T19:11:02.242Z,55.96
2018-07-13T19:12:54.948Z,55.77
2018-07-13T19:13:54.844Z,55.96
2018-07-13T19:15:47.625Z,56.45
2018-07-13T19:16:47.504Z,56.45
2018-07-13T19:18:40.199Z,56.54
2018-07-13T19:19:40.103Z,56.73
2018-07-13T19:21:32.810Z,56.99
2018-07-13T19:22:32.711Z,57.29
2018-07-13T19:24:25.384Z,57.48
2018-07-13T19:25:25.279Z,57.96
2018-07-13T19:27:18.135Z,58.45
2018-07-13T19:28:17.885Z,58.15
2018-07-13T19:30:10.578Z,58.54
2018-07-13T19:31:10.578Z,58.45
2018-07-13T19:33:03.202Z,59.02
2018-07-13T19:34:03.070Z,58.90
2018-07-13T19:35:55.821Z,59.67
2018-07-13T19:36:55.892Z,59.96
2018-07-13T19:38:48.371Z,59.67
2018-07-13T19:39:48.252Z,59.86
2018-07-13T19:41:40.938Z,59.86
2018-07-13T19:42:40.840Z,60.16
2018-07-13T19:44:33.546Z,60.06
2018-07-13T19:45:33.431Z,60.80
2018-07-13T19:47:26.115Z,60.80
2018-07-13T19:48:26.012Z,61.70
2018-07-13T19:50:18.720Z,61.67
2018-07-13T19:51:18.591Z,61.57
2018-07-13T19:53:11.283Z,61.96
2018-07-13T19:54:11.185Z,61.77
2018-07-13T19:56:04.035Z,62.63
2018-07-13T19:57:03.852Z,62.82
2018-07-13T19:58:56.458Z,62.92
2018-07-13T19:59:56.360Z,63.28
2018-07-13T20:01:49.063Z,63.31
2018-07-13T20:02:48.958Z,63.67
2018-07-13T20:04:41.631Z,63.85
2018-07-13T20:05:41.523Z,64.05
2018-07-13T20:07:34.228Z,64.15
2018-07-13T20:08:34.110Z,64.24
2018-07-13T20:10:26.800Z,64.34
2018-07-13T20:11:26.697Z,65.01
2018-07-13T20:13:19.412Z,64.50
2018-07-13T20:14:19.294Z,65.37
2018-07-13T20:16:11.980Z,65.40
2018-07-13T20:17:11.893Z,65.27
2018-07-13T20:19:04.584Z,65.75
2018-07-13T20:20:04.468Z,65.56
2018-07-13T20:21:57.149Z,65.75
2018-07-13T20:22:57.054Z,65.95
2018-07-13T20:24:49.764Z,66.62
2018-07-13T20:25:49.643Z,66.82
2018-07-13T20:27:42.330Z,66.82
2018-07-13T20:28:42.227Z,66.78
2018-07-13T20:30:34.942Z,66.78
2018-07-13T20:31:34.825Z,67.00
2018-07-13T20:33:27.598Z,67.16
2018-07-13T20:34:27.413Z,67.94
2018-07-13T20:36:20.122Z,67.65
2018-07-13T20:37:19.997Z,68.32
2018-07-13T20:39:12.683Z,68.13
2018-07-13T20:40:12.585Z,68.52
2018-07-13T20:42:05.304Z,68.42
2018-07-13T20:43:05.178Z,68.32
2018-07-13T20:44:57.860Z,68.80
2018-07-13T20:45:57.769Z,68.77
2018-07-13T20:47:50.462Z,69.15
2018-07-13T20:48:50.344Z,69.19
2018-07-13T20:50:43.039Z,69.25
2018-07-13T20:51:42.940Z,69.73
2018-07-13T20:53:35.648Z,70.12
2018-07-13T20:54:35.631Z,70.02
2018-07-13T20:56:28.206Z,70.89
2018-07-13T20:57:28.104Z,71.37
2018-07-13T20:59:20.816Z,71.28
2018-07-13T21:00:20.683Z,71.47
2018-07-13T21:02:13.363Z,72.14
2018-07-13T21:03:13.265Z,72.24
2018-07-13T21:05:06.066Z,72.49
2018-07-13T21:06:05.861Z,73.16
2018-07-13T21:07:58.541Z,72.88
2018-07-13T21:08:58.436Z,72.88
2018-07-13T21:10:51.148Z,73.36
2018-07-13T21:11:51.140Z,73.55
2018-07-13T21:13:43.724Z,73.94
2018-07-13T21:14:43.616Z,73.46
2018-07-13T21:16:36.320Z,73.99
2018-07-13T21:17:36.199Z,74.03
2018-07-13T21:19:28.968Z,74.38
2018-07-13T21:20:28.813Z,74.38
2018-07-13T21:22:21.622Z,74.48
2018-07-13T21:23:21.493Z,74.76
2018-07-13T21:25:14.078Z,74.86
2018-07-13T21:26:13.976Z,75.05
2018-07-13T21:28:06.680Z,74.67
2018-07-13T21:29:06.577Z,74.86
2018-07-13T21:30:59.272Z,74.86
2018-07-13T21:31:59.141Z,74.92
2018-07-13T21:33:51.838Z,75.15
2018-07-13T21:34:51.733Z,75.40
2018-07-13T21:36:44.433Z,75.82
2018-07-13T21:37:44.307Z,75.69
2018-07-13T21:39:36.997Z,76.07
2018-07-13T21:40:36.895Z,76.17
2018-07-13T21:42:29.598Z,75.79
2018-07-13T21:43:29.477Z,75.98
2018-07-13T21:45:22.189Z,75.98
2018-07-13T21:46:22.059Z,76.17
2018-07-13T21:48:14.764Z,76.84
2018-07-13T21:49:14.641Z,76.07
2018-07-13T21:51:07.355Z,76.65
2018-07-13T21:52:07.265Z,77.04
2018-07-13T21:53:59.921Z,76.75
2018-07-13T21:54:59.815Z,76.65
2018-07-13T21:56:52.535Z,77.00
2018-07-13T21:57:52.395Z,77.19
2018-07-13T21:59:45.076Z,77.00
